Time;durP1;ratioP1;P1;durP2;ratioP2;P2;SDS_P1;SDS_P2;PMS_P1;PMS_P2;Temp;Humidity;BMP_temperature;BMP_pressure;BME280_temperature;BME280_humidity;BME280_pressure;Samples;Min_cycle;Max_cycle;Signal;HPM_P1;HPM_P2
2022/02/28 00:00:47;;;;;;;19.98;10.27;;;3.60;99.30;;;;;;5031738;28;20062;-61
2022/02/28 00:03:12;;;;;;;21.52;11.05;;;3.60;99.30;;;;;;5050750;28;20124;-62
2022/02/28 00:05:38;;;;;;;20.90;10.98;;;3.70;99.30;;;;;;5035456;28;20136;-61
2022/02/28 00:08:03;;;;;;;19.92;11.02;;;3.70;99.20;;;;;;5032185;28;20033;-61
2022/02/28 00:10:29;;;;;;;22.08;12.25;;;3.70;99.00;;;;;;5023442;28;20377;-61
2022/02/28 00:12:54;;;;;;;22.02;11.15;;;3.70;99.10;;;;;;5046995;28;20029;-61
2022/02/28 00:15:21;;;;;;;22.45;12.30;;;3.70;99.00;;;;;;5035589;28;20767;-61
2022/02/28 00:17:47;;;;;;;24.85;13.63;;;3.70;99.10;;;;;;5040494;28;20025;-61
2022/02/28 00:20:15;;;;;;;24.27;13.98;;;3.70;99.10;;;;;;5037789;28;20076;-61
2022/02/28 00:22:42;;;;;;;24.83;13.68;;;3.70;99.00;;;;;;5041857;28;20038;-61
2022/02/28 00:25:09;;;;;;;25.58;13.32;;;3.70;99.00;;;;;;5037328;28;20039;-61
2022/02/28 00:27:35;;;;;;;21.52;12.43;;;3.70;98.90;;;;;;5051711;28;20476;-61
2022/02/28 00:30:01;;;;;;;23.30;12.35;;;3.70;98.90;;;;;;5050321;28;20094;-61
2022/02/28 00:32:26;;;;;;;25.23;13.15;;;3.70;98.90;;;;;;5050443;28;20028;-61
2022/02/28 00:34:52;;;;;;;23.35;12.93;;;3.70;98.80;;;;;;5048550;28;20102;-61
2022/02/28 00:37:18;;;;;;;22.17;11.35;;;3.70;98.80;;;;;;5051407;28;20061;-61
2022/02/28 00:39:44;;;;;;;22.42;12.60;;;3.70;98.90;;;;;;5048295;28;20084;-61
2022/02/28 00:42:11;;;;;;;24.55;13.20;;;3.70;98.80;;;;;;5051622;28;20028;-60
2022/02/28 00:44:37;;;;;;;25.73;13.82;;;3.70;98.80;;;;;;5041859;28;20037;-61
2022/02/28 00:47:04;;;;;;;25.80;13.70;;;3.70;98.90;;;;;;5050533;28;20029;-61
2022/02/28 00:49:29;;;;;;;27.05;13.57;;;3.80;98.90;;;;;;5050015;28;20112;-61
2022/02/28 00:51:55;;;;;;;25.60;14.27;;;3.80;98.80;;;;;;5051006;28;20500;-60
2022/02/28 00:54:20;;;;;;;27.58;15.05;;;3.80;98.80;;;;;;5047481;28;20025;-60
2022/02/28 00:56:46;;;;;;;29.27;14.73;;;3.80;98.80;;;;;;5050198;28;20025;-61
2022/02/28 00:59:11;;;;;;;29.70;15.02;;;3.80;98.80;;;;;;5051193;28;20492;-60
2022/02/28 01:01:37;;;;;;;25.73;13.68;;;3.80;98.80;;;;;;5047366;28;20017;-59
2022/02/28 01:04:04;;;;;;;25.05;13.15;;;3.90;98.80;;;;;;5051229;28;20422;-61
2022/02/28 01:06:29;;;;;;;24.23;13.20;;;3.80;98.70;;;;;;5033949;28;20397;-61
2022/02/28 01:08:55;;;;;;;22.17;12.70;;;3.80;98.70;;;;;;5031400;28;20035;-61
2022/02/28 01:11:20;;;;;;;23.80;12.32;;;3.80;98.60;;;;;;5046780;28;20035;-61
2022/02/28 01:13:46;;;;;;;25.73;13.30;;;3.90;98.70;;;;;;5031867;28;20033;-61
2022/02/28 01:16:11;;;;;;;26.95;13.63;;;3.90;98.60;;;;;;5031743;28;20025;-60
2022/02/28 01:18:37;;;;;;;26.50;14.05;;;4.00;98.70;;;;;;5021438;28;20061;-61
2022/02/28 01:21:02;;;;;;;28.10;13.30;;;3.90;98.60;;;;;;5051833;28;20583;-61
2022/02/28 01:23:28;;;;;;;27.63;13.38;;;4.00;98.60;;;;;;5068320;28;20036;-61
2022/02/28 01:25:53;;;;;;;28.45;14.15;;;4.00;98.50;;;;;;5042843;28;20087;-60
2022/02/28 01:28:19;;;;;;;28.60;14.20;;;4.10;98.50;;;;;;5031252;28;20033;-61
2022/02/28 01:30:45;;;;;;;26.75;14.60;;;4.10;98.40;;;;;;5037261;28;20132;-61
2022/02/28 01:33:10;;;;;;;32.97;15.48;;;4.00;98.40;;;;;;5042064;28;20037;-61
2022/02/28 01:35:36;;;;;;;30.65;15.32;;;4.00;98.40;;;;;;5048574;28;20029;-61
2022/02/28 01:38:02;;;;;;;28.30;15.80;;;4.10;98.40;;;;;;5044665;28;20432;-61
2022/02/28 01:40:27;;;;;;;26.55;13.85;;;4.00;98.40;;;;;;5031512;28;20082;-61
2022/02/28 01:42:53;;;;;;;28.05;13.27;;;4.00;98.40;;;;;;5035281;28;20069;-62
2022/02/28 01:45:22;;;;;;;29.67;13.75;;;4.00;98.40;;;;;;5048910;28;20029;-62
2022/02/28 01:47:49;;;;;;;28.00;13.93;;;4.00;98.30;;;;;;5047687;28;20018;-61
2022/02/28 01:50:15;;;;;;;30.08;14.38;;;4.00;98.30;;;;;;5037036;28;20105;-61
2022/02/28 01:52:41;;;;;;;25.67;13.15;;;4.00;98.30;;;;;;5037005;28;20786;-62
2022/02/28 01:55:09;;;;;;;26.58;13.63;;;4.10;98.30;;;;;;5036502;28;20598;-61
2022/02/28 01:57:34;;;;;;;27.08;14.27;;;4.00;98.30;;;;;;5032085;28;20436;-61
2022/02/28 02:00:00;;;;;;;29.27;13.38;;;4.00;98.20;;;;;;5035286;28;20057;-62
2022/02/28 02:02:26;;;;;;;26.95;14.13;;;4.00;98.20;;;;;;5045476;28;20086;-61
2022/02/28 02:04:51;;;;;;;26.08;13.68;;;4.00;98.20;;;;;;5034595;28;20038;-61
2022/02/28 02:07:17;;;;;;;25.60;14.23;;;4.00;98.20;;;;;;5031286;28;20045;-61
2022/02/28 02:09:42;;;;;;;25.33;13.13;;;3.90;98.20;;;;;;5049723;28;20029;-61
2022/02/28 02:12:08;;;;;;;26.75;13.80;;;3.90;98.10;;;;;;5036552;28;20040;-61
2022/02/28 02:14:36;;;;;;;27.40;13.57;;;3.90;98.20;;;;;;5037560;28;20055;-61
2022/02/28 02:17:01;;;;;;;29.88;13.80;;;3.90;98.20;;;;;;5034295;28;20040;-61
2022/02/28 02:19:27;;;;;;;27.30;14.32;;;4.00;98.10;;;;;;5040988;28;20045;-61
2022/02/28 02:21:57;;;;;;;26.35;13.82;;;4.00;98.10;;;;;;5049905;28;20098;-61
2022/02/28 02:24:23;;;;;;;27.67;13.48;;;4.00;98.10;;;;;;5040458;28;20052;-61
2022/02/28 02:26:48;;;;;;;28.42;14.77;;;4.10;98.10;;;;;;5038550;28;20457;-61
2022/02/28 02:29:14;;;;;;;29.85;13.98;;;4.00;98.00;;;;;;5039371;28;20374;-61
2022/02/28 02:31:39;;;;;;;30.75;14.85;;;4.10;97.90;;;;;;5053940;28;20482;-61
2022/02/28 02:34:05;;;;;;;27.77;14.45;;;4.00;97.90;;;;;;5040792;28;20029;-61
2022/02/28 02:36:30;;;;;;;27.88;14.57;;;4.00;97.90;;;;;;5051348;28;20029;-61
2022/02/28 02:38:56;;;;;;;28.33;14.80;;;4.00;98.10;;;;;;5052778;28;20041;-61
2022/02/28 02:41:21;;;;;;;30.92;15.07;;;4.10;97.90;;;;;;5053787;28;20029;-61
2022/02/28 02:43:47;;;;;;;30.23;15.88;;;4.10;97.90;;;;;;5045572;28;20033;-61
2022/02/28 02:46:12;;;;;;;26.65;14.02;;;4.10;97.90;;;;;;5033648;28;20133;-62
2022/02/28 02:48:38;;;;;;;29.38;15.57;;;4.10;97.80;;;;;;5039124;28;20029;-62
2022/02/28 02:51:04;;;;;;;30.08;15.65;;;4.10;97.80;;;;;;5053740;28;20029;-61
2022/02/28 02:53:29;;;;;;;27.90;13.70;;;4.00;97.70;;;;;;5048916;28;20469;-61
2022/02/28 02:55:54;;;;;;;29.65;13.65;;;4.00;97.70;;;;;;5042130;28;20117;-61
2022/02/28 02:58:20;;;;;;;25.77;13.88;;;4.10;97.70;;;;;;5047201;28;20165;-61
2022/02/28 03:00:50;;;;;;;26.67;14.23;;;4.00;97.70;;;;;;5053557;28;20033;-61
2022/02/28 03:03:19;;;;;;;27.88;14.25;;;4.00;97.60;;;;;;5054473;28;20859;-61
2022/02/28 03:05:49;;;;;;;28.30;13.65;;;4.00;97.60;;;;;;5053363;28;20025;-60
2022/02/28 03:08:14;;;;;;;28.00;13.77;;;4.10;97.60;;;;;;5030209;28;20021;-60
2022/02/28 03:10:40;;;;;;;28.25;13.82;;;4.10;97.50;;;;;;5035288;28;20083;-61
2022/02/28 03:13:05;;;;;;;28.85;14.13;;;4.10;97.40;;;;;;5033946;28;20083;-61
2022/02/28 03:15:31;;;;;;;25.50;13.68;;;4.00;97.20;;;;;;5053158;28;20039;-61
2022/02/28 03:17:56;;;;;;;27.38;13.95;;;4.00;97.20;;;;;;5036395;28;20492;-61
2022/02/28 03:20:22;;;;;;;31.65;15.20;;;4.00;97.10;;;;;;5053327;28;20036;-60
2022/02/28 03:22:48;;;;;;;31.67;15.48;;;3.90;97.10;;;;;;5038810;28;20057;-61
2022/02/28 03:25:14;;;;;;;31.25;13.95;;;4.00;97.10;;;;;;5052358;28;20396;-61
2022/02/28 03:27:39;;;;;;;33.47;15.77;;;4.00;97.10;;;;;;5033288;28;20025;-61
2022/02/28 03:30:06;;;;;;;28.13;14.32;;;3.90;97.10;;;;;;5033351;28;20044;-61
2022/02/28 03:32:32;;;;;;;36.40;16.83;;;4.00;97.10;;;;;;5033469;28;20112;-60
2022/02/28 03:34:57;;;;;;;30.67;15.90;;;3.90;97.00;;;;;;5033745;28;20160;-61
2022/02/28 03:37:23;;;;;;;33.17;16.67;;;4.00;97.10;;;;;;5031801;28;20021;-60
2022/02/28 03:39:48;;;;;;;29.77;14.43;;;3.90;97.00;;;;;;5047255;28;20029;-60
2022/02/28 03:42:14;;;;;;;32.97;16.33;;;4.00;97.00;;;;;;5052620;28;20032;-61
2022/02/28 03:44:40;;;;;;;35.30;16.70;;;4.00;97.00;;;;;;5048168;28;20476;-60
2022/02/28 03:47:06;;;;;;;34.30;17.52;;;4.00;97.00;;;;;;5051523;28;20027;-61
2022/02/28 03:49:31;;;;;;;30.10;15.65;;;3.90;96.80;;;;;;5051156;28;20121;-61
2022/02/28 03:51:57;;;;;;;27.23;14.13;;;3.80;96.70;;;;;;5052317;28;20094;-60
2022/02/28 03:54:23;;;;;;;31.10;15.95;;;3.80;96.80;;;;;;5039034;28;20029;-62
2022/02/28 03:56:48;;;;;;;30.35;14.60;;;3.70;96.70;;;;;;5032334;28;20028;-61
2022/02/28 03:59:14;;;;;;;33.88;16.75;;;3.70;96.70;;;;;;5042900;28;20365;-61
2022/02/28 04:01:40;;;;;;;33.95;16.02;;;3.70;96.70;;;;;;5049161;28;20038;-61
2022/02/28 04:04:05;;;;;;;30.20;14.43;;;3.70;96.70;;;;;;5036382;28;20037;-61
2022/02/28 04:06:32;;;;;;;29.85;14.25;;;3.70;96.60;;;;;;5032950;28;20025;-61
2022/02/28 04:08:58;;;;;;;25.55;13.63;;;3.70;96.60;;;;;;5039967;28;20063;-61
2022/02/28 04:11:24;;;;;;;31.08;15.57;;;3.60;96.60;;;;;;5052421;28;20070;-61
2022/02/28 04:13:50;;;;;;;31.63;15.38;;;3.70;96.60;;;;;;5039401;28;20422;-62
2022/02/28 04:16:16;;;;;;;32.75;15.20;;;3.70;96.50;;;;;;5051844;28;20567;-61
2022/02/28 04:18:41;;;;;;;30.70;15.52;;;3.60;96.50;;;;;;5040390;28;20040;-61
2022/02/28 04:21:07;;;;;;;34.40;16.20;;;3.70;96.60;;;;;;5036546;28;20086;-61
2022/02/28 04:23:32;;;;;;;30.90;16.65;;;3.60;96.60;;;;;;5047505;28;20598;-61
2022/02/28 04:25:59;;;;;;;32.88;15.75;;;3.60;96.60;;;;;;5038590;28;20412;-61
2022/02/28 04:28:25;;;;;;;28.20;14.20;;;3.60;96.60;;;;;;5041607;28;20025;-61
2022/02/28 04:30:50;;;;;;;29.70;15.23;;;3.60;96.60;;;;;;5040143;28;20085;-61
2022/02/28 04:33:16;;;;;;;30.30;14.13;;;3.60;96.60;;;;;;5033962;28;20341;-61
2022/02/28 04:35:41;;;;;;;30.40;15.30;;;3.60;96.50;;;;;;5041162;28;20029;-62
2022/02/28 04:38:07;;;;;;;28.85;15.30;;;3.60;96.50;;;;;;5035757;28;20029;-62
2022/02/28 04:40:33;;;;;;;32.85;16.45;;;3.60;96.50;;;;;;5051773;28;20544;-61
2022/02/28 04:42:59;;;;;;;34.30;16.60;;;3.60;96.50;;;;;;5048638;28;20032;-61
2022/02/28 04:45:24;;;;;;;38.90;18.73;;;3.60;96.50;;;;;;5032263;28;20022;-62
2022/02/28 04:47:50;;;;;;;34.45;17.00;;;3.60;96.40;;;;;;5031576;28;20112;-61
2022/02/28 04:50:15;;;;;;;34.63;16.50;;;3.50;96.40;;;;;;5047219;28;20567;-62
2022/02/28 04:52:41;;;;;;;34.38;17.02;;;3.50;96.40;;;;;;5031676;28;20017;-61
2022/02/28 04:55:07;;;;;;;32.22;15.73;;;3.50;96.50;;;;;;5046301;28;20037;-62
2022/02/28 04:57:37;;;;;;;31.60;15.55;;;3.40;96.50;;;;;;5031250;28;20099;-61
2022/02/28 05:00:03;;;;;;;28.13;15.30;;;3.40;96.50;;;;;;5048059;28;20068;-61
2022/02/28 05:02:29;;;;;;;35.17;17.20;;;3.50;96.70;;;;;;5034733;28;20090;-61
2022/02/28 05:05:15;;;;;;;32.38;16.33;;;3.40;96.50;;;;;;5049779;28;20072;-62
2022/02/28 05:08:00;;;;;;;35.53;16.75;;;3.40;96.40;;;;;;5045954;28;20044;-61
2022/02/28 05:10:35;;;;;;;33.97;16.05;;;3.40;96.50;;;;;;5049919;28;20353;-61
2022/02/28 05:13:01;;;;;;;33.08;16.98;;;3.30;96.50;;;;;;5049370;28;20029;-61
2022/02/28 05:15:27;;;;;;;34.75;15.43;;;3.40;96.50;;;;;;5033303;28;20035;-61
2022/02/28 05:17:52;;;;;;;35.35;17.42;;;3.30;96.50;;;;;;5030778;28;20033;-62
2022/02/28 05:20:18;;;;;;;32.60;16.30;;;3.30;96.40;;;;;;5045878;28;20048;-61
2022/02/28 05:22:44;;;;;;;32.00;16.23;;;3.20;96.40;;;;;;5039906;28;20025;-62
2022/02/28 05:25:10;;;;;;;35.55;17.02;;;3.20;96.50;;;;;;5049375;28;20038;-61
2022/02/28 05:27:40;;;;;;;35.08;17.48;;;3.20;96.50;;;;;;5050565;28;20032;-61
2022/02/28 05:30:07;;;;;;;37.15;19.02;;;3.10;96.50;;;;;;5049805;28;20047;-62
2022/02/28 05:32:33;;;;;;;34.78;17.42;;;3.00;96.50;;;;;;5043802;28;20033;-62
2022/02/28 05:34:59;;;;;;;38.17;18.50;;;3.00;96.50;;;;;;5031912;28;20033;-61
2022/02/28 05:37:24;;;;;;;41.95;18.77;;;2.90;96.60;;;;;;5050739;28;20036;-61
2022/02/28 05:39:50;;;;;;;36.63;17.25;;;2.90;96.60;;;;;;5049062;28;20553;-61
2022/02/28 05:42:15;;;;;;;36.90;17.58;;;2.80;96.60;;;;;;5043969;28;20469;-61
2022/02/28 05:44:41;;;;;;;34.17;17.48;;;2.90;96.70;;;;;;5031973;28;20033;-61
2022/02/28 05:47:06;;;;;;;32.75;16.92;;;2.90;96.80;;;;;;5044093;28;20025;-62
2022/02/28 05:49:32;;;;;;;36.45;19.25;;;2.90;96.80;;;;;;5039550;28;20052;-61
2022/02/28 05:51:58;;;;;;;37.33;16.70;;;3.00;96.80;;;;;;5034629;28;20029;-61
2022/02/28 05:54:23;;;;;;;34.90;16.88;;;3.00;96.80;;;;;;5037663;28;20032;-61
2022/02/28 05:56:49;;;;;;;34.88;16.67;;;3.00;96.90;;;;;;5034755;28;20499;-61
2022/02/28 05:59:14;;;;;;;34.75;16.70;;;3.00;96.80;;;;;;5024164;28;20037;-61
2022/02/28 06:01:40;;;;;;;33.58;16.08;;;3.10;96.80;;;;;;5033477;28;20045;-61
2022/02/28 06:04:06;;;;;;;38.17;18.50;;;3.10;96.80;;;;;;5037267;28;20033;-61
2022/02/28 06:06:31;;;;;;;34.28;17.20;;;3.10;96.80;;;;;;5017193;28;20029;-61
2022/02/28 06:08:57;;;;;;;34.60;16.98;;;3.10;96.80;;;;;;5042015;28;20492;-62
2022/02/28 06:11:23;;;;;;;32.83;17.67;;;3.20;96.80;;;;;;5054879;28;20082;-61
2022/02/28 06:13:48;;;;;;;35.75;17.40;;;3.20;96.80;;;;;;5052235;28;20032;-61
2022/02/28 06:16:14;;;;;;;38.58;17.52;;;3.20;96.70;;;;;;5054577;28;20021;-61
2022/02/28 06:18:40;;;;;;;32.85;17.48;;;3.20;96.80;;;;;;5050750;28;20476;-61
2022/02/28 06:21:05;;;;;;;34.08;17.27;;;3.30;96.80;;;;;;5054552;28;20029;-61
2022/02/28 06:23:31;;;;;;;33.53;16.27;;;3.30;96.90;;;;;;5047819;28;20534;-61
2022/02/28 06:25:57;;;;;;;33.13;17.58;;;3.40;96.80;;;;;;5051591;28;20079;-61
2022/02/28 06:28:22;;;;;;;32.75;17.63;;;3.40;96.80;;;;;;5051932;28;20021;-63
2022/02/28 06:30:48;;;;;;;37.80;19.30;;;3.40;96.70;;;;;;5054192;28;20115;-64
2022/02/28 06:33:13;;;;;;;32.45;16.77;;;3.40;96.70;;;;;;5046107;28;20480;-63
2022/02/28 06:35:39;;;;;;;35.60;17.70;;;3.40;96.70;;;;;;5033875;28;20800;-63
2022/02/28 06:38:09;;;;;;;38.47;18.73;;;3.40;96.60;;;;;;5039316;28;20055;-62
2022/02/28 06:40:36;;;;;;;39.28;21.00;;;3.50;96.60;;;;;;5054685;28;20551;-62
2022/02/28 06:43:02;;;;;;;40.55;21.20;;;3.50;96.60;;;;;;5038413;28;20091;-62
2022/02/28 06:45:28;;;;;;;35.88;18.85;;;3.50;96.60;;;;;;5033238;28;20469;-62
2022/02/28 06:47:53;;;;;;;36.03;18.63;;;3.50;96.50;;;;;;5036050;28;20033;-61
2022/02/28 06:50:19;;;;;;;37.08;18.70;;;3.50;96.50;;;;;;5042515;28;20033;-62
2022/02/28 06:52:44;;;;;;;30.95;17.02;;;3.50;96.50;;;;;;5039942;28;20036;-62
2022/02/28 06:55:10;;;;;;;38.35;17.70;;;3.50;96.50;;;;;;5050200;28;20056;-62
2022/02/28 06:57:35;;;;;;;38.65;19.20;;;3.70;96.50;;;;;;5052276;28;20021;-62
2022/02/28 07:00:01;;;;;;;34.75;17.27;;;3.70;96.50;;;;;;5051230;28;20049;-62
2022/02/28 07:02:27;;;;;;;33.33;16.00;;;3.70;96.50;;;;;;5052404;28;20045;-62
2022/02/28 07:04:52;;;;;;;36.97;18.85;;;3.80;96.70;;;;;;5039843;28;20586;-62
2022/02/28 07:07:18;;;;;;;42.05;19.42;;;3.80;96.30;;;;;;5033645;28;20389;-62
2022/02/28 07:09:47;;;;;;;38.10;18.30;;;3.80;95.90;;;;;;5040878;28;20108;-62
2022/02/28 07:12:14;;;;;;;39.85;18.13;;;3.60;96.30;;;;;;5048584;28;20155;-62
2022/02/28 07:14:39;;;;;;;40.38;19.08;;;3.70;96.20;;;;;;5051783;28;20053;-63
2022/02/28 07:17:05;;;;;;;39.05;17.25;;;3.60;96.20;;;;;;5038809;28;20545;-62
2022/02/28 07:19:32;;;;;;;31.88;16.52;;;3.60;96.10;;;;;;5038715;28;20601;-63
2022/02/28 07:21:58;;;;;;;35.85;18.23;;;3.70;96.30;;;;;;5043779;28;20076;-63
2022/02/28 07:24:23;;;;;;;30.67;15.77;;;3.70;96.30;;;;;;5048059;28;20061;-63
2022/02/28 07:26:49;;;;;;;35.45;17.48;;;3.70;96.20;;;;;;5049166;28;20024;-63
2022/02/28 07:29:14;;;;;;;33.60;16.00;;;3.60;96.10;;;;;;5032113;28;20024;-63
2022/02/28 07:31:41;;;;;;;34.85;17.60;;;3.70;96.20;;;;;;5050640;28;20515;-63
2022/02/28 07:34:08;;;;;;;36.10;17.42;;;3.70;96.30;;;;;;5051502;28;20174;-63
2022/02/28 07:36:34;;;;;;;36.65;18.05;;;3.70;96.30;;;;;;5050566;28;20032;-64
2022/02/28 07:38:59;;;;;;;29.02;14.93;;;3.70;96.10;;;;;;5052689;28;20041;-64
2022/02/28 07:41:26;;;;;;;32.80;16.20;;;3.60;96.10;;;;;;5051170;28;20024;-64
2022/02/28 07:43:51;;;;;;;33.85;18.67;;;3.70;96.10;;;;;;5046508;28;20032;-63
2022/02/28 07:46:16;;;;;;;31.80;15.55;;;3.60;96.10;;;;;;5058211;28;20765;-63
2022/02/28 07:48:42;;;;;;;31.85;15.60;;;3.60;96.10;;;;;;5044242;28;20033;-63
2022/02/28 07:51:07;;;;;;;34.05;16.02;;;3.70;96.20;;;;;;5058157;28;20721;-63
2022/02/28 07:53:33;;;;;;;31.45;15.13;;;3.70;96.30;;;;;;5052848;28;20021;-62
2022/02/28 07:55:58;;;;;;;28.25;15.65;;;3.80;96.40;;;;;;5058353;28;20094;-63
2022/02/28 07:58:24;;;;;;;30.63;15.65;;;3.90;96.40;;;;;;5062950;28;20124;-62
2022/02/28 08:00:49;;;;;;;28.83;14.55;;;4.00;96.30;;;;;;5040100;28;20396;-64
2022/02/28 08:03:15;;;;;;;31.65;15.93;;;4.00;96.20;;;;;;5050043;28;20093;-63
2022/02/28 08:05:40;;;;;;;30.27;15.57;;;4.10;96.30;;;;;;5039657;28;20393;-63
2022/02/28 08:08:07;;;;;;;33.10;15.80;;;4.10;96.10;;;;;;5033469;28;20025;-62
2022/02/28 08:10:33;;;;;;;27.90;14.80;;;4.20;96.00;;;;;;5048739;28;20032;-63
2022/02/28 08:12:58;;;;;;;29.70;15.13;;;4.20;96.00;;;;;;5049157;28;20472;-64
2022/02/28 08:15:24;;;;;;;26.95;14.20;;;4.30;96.10;;;;;;5043234;28;20026;-63
2022/02/28 08:17:49;;;;;;;28.25;13.98;;;4.30;96.10;;;;;;5031717;28;20055;-63
2022/02/28 08:20:15;;;;;;;26.05;13.68;;;4.40;96.20;;;;;;5048403;28;20075;-63
2022/02/28 08:22:40;;;;;;;26.70;14.65;;;4.50;96.20;;;;;;5065577;28;20468;-63
2022/02/28 08:25:06;;;;;;;27.20;14.52;;;4.60;96.00;;;;;;5052554;28;20052;-63
2022/02/28 08:27:32;;;;;;;26.67;15.18;;;4.60;95.70;;;;;;5070094;28;20025;-63
2022/02/28 08:29:58;;;;;;;31.75;15.98;;;4.60;95.40;;;;;;5047704;28;20029;-62
2022/02/28 08:32:23;;;;;;;32.22;15.52;;;4.40;95.20;;;;;;5058526;28;20020;-63
2022/02/28 08:34:48;;;;;;;28.00;14.90;;;4.40;95.30;;;;;;5044635;28;20025;-64
2022/02/28 08:37:14;;;;;;;27.45;15.80;;;4.40;95.30;;;;;;5040806;28;20037;-63
2022/02/28 08:39:39;;;;;;;29.52;15.52;;;4.30;95.20;;;;;;5038285;28;20123;-63
2022/02/28 08:42:05;;;;;;;32.83;16.13;;;4.30;95.40;;;;;;5017927;28;20017;-64
2022/02/28 08:44:31;;;;;;;31.88;15.48;;;4.20;95.40;;;;;;5052615;28;20522;-64
2022/02/28 08:46:57;;;;;;;29.67;15.88;;;4.20;95.40;;;;;;5050241;28;20128;-64
2022/02/28 08:49:23;;;;;;;29.90;16.70;;;4.20;95.30;;;;;;5039597;28;20037;-63
2022/02/28 08:51:48;;;;;;;29.70;15.82;;;4.30;95.60;;;;;;5058296;28;20021;-62
2022/02/28 08:54:14;;;;;;;26.17;15.55;;;4.30;95.50;;;;;;5037834;28;20116;-63
2022/02/28 08:56:39;;;;;;;29.83;16.98;;;4.30;95.60;;;;;;5034343;28;20112;-63
2022/02/28 08:59:06;;;;;;;32.78;17.25;;;4.40;95.80;;;;;;5047631;28;20048;-63
2022/02/28 09:01:31;;;;;;;29.42;17.02;;;4.40;95.90;;;;;;5057458;28;20040;-63
2022/02/28 09:03:57;;;;;;;30.52;16.98;;;4.50;95.90;;;;;;5031981;28;20047;-62
2022/02/28 09:06:22;;;;;;;37.40;20.20;;;4.60;95.80;;;;;;5057474;28;20368;-62
2022/02/28 09:08:48;;;;;;;33.67;19.20;;;4.60;95.70;;;;;;5046931;28;20037;-63
2022/02/28 09:11:15;;;;;;;33.10;17.77;;;4.60;95.40;;;;;;5056046;28;20020;-63
2022/02/28 09:13:41;;;;;;;36.75;19.90;;;4.60;95.40;;;;;;5047052;28;20342;-64
2022/02/28 09:16:06;;;;;;;37.25;19.23;;;4.50;95.20;;;;;;5048699;28;20086;-61
2022/02/28 09:18:32;;;;;;;28.75;16.05;;;4.50;95.20;;;;;;5035210;28;20032;-62
2022/02/28 09:20:57;;;;;;;40.58;21.73;;;4.40;95.20;;;;;;5048996;28;20078;-63
2022/02/28 09:23:23;;;;;;;39.90;20.40;;;4.30;94.80;;;;;;5049246;28;20079;-63
2022/02/28 09:25:49;;;;;;;36.53;21.77;;;4.20;94.90;;;;;;5056802;28;20040;-64
2022/02/28 09:28:14;;;;;;;40.78;20.50;;;4.20;94.90;;;;;;5054699;28;20029;-63
2022/02/28 09:30:39;;;;;;;38.45;19.95;;;4.10;95.20;;;;;;5056522;28;20051;-62
2022/02/28 09:33:05;;;;;;;42.60;20.50;;;4.20;95.40;;;;;;5054313;28;20078;-61
2022/02/28 09:35:30;;;;;;;39.28;21.85;;;4.10;95.30;;;;;;5047024;28;20150;-62
2022/02/28 09:37:56;;;;;;;44.13;20.52;;;4.20;95.40;;;;;;5060891;28;20025;-62
2022/02/28 09:40:30;;;;;;;39.00;20.40;;;4.20;95.40;;;;;;5053833;28;20401;-62
2022/02/28 09:42:59;;;;;;;34.95;18.42;;;4.20;95.20;;;;;;5024738;28;20036;-62
2022/02/28 09:45:25;;;;;;;37.72;19.60;;;4.20;95.70;;;;;;5040499;28;20548;-62
2022/02/28 09:47:51;;;;;;;37.58;18.63;;;4.30;95.80;;;;;;5044812;28;20017;-61
2022/02/28 09:50:18;;;;;;;34.53;17.85;;;4.30;95.60;;;;;;5039807;28;20036;-62
2022/02/28 09:52:43;;;;;;;32.45;18.35;;;4.30;95.20;;;;;;5056468;28;20025;-62
2022/02/28 09:55:10;;;;;;;30.63;17.27;;;4.20;95.00;;;;;;5042428;28;20040;-61
2022/02/28 09:57:37;;;;;;;31.40;17.42;;;4.10;95.00;;;;;;5056033;28;20479;-61
2022/02/28 10:00:03;;;;;;;32.47;17.00;;;4.10;95.20;;;;;;5054725;28;20436;-61
2022/02/28 10:02:29;;;;;;;32.95;16.73;;;4.10;95.30;;;;;;5068457;28;20175;-62
2022/02/28 10:04:56;;;;;;;28.58;15.45;;;4.10;95.30;;;;;;5037636;28;20132;-62
2022/02/28 10:07:24;;;;;;;32.25;16.73;;;4.20;95.30;;;;;;5044971;28;20049;-62
2022/02/28 10:10:09;;;;;;;27.48;15.15;;;4.20;95.40;;;;;;5048277;28;20035;-62
2022/02/28 10:12:36;;;;;;;28.67;15.05;;;4.30;95.40;;;;;;5049586;28;20106;-61
2022/02/28 10:15:05;;;;;;;25.45;14.93;;;4.40;95.40;;;;;;5044204;28;20061;-62
2022/02/28 10:17:43;;;;;;;27.38;14.57;;;4.50;95.50;;;;;;5034045;28;20033;-62
2022/02/28 10:20:18;;;;;;;29.52;15.32;;;4.40;94.80;;;;;;5049486;28;20052;-62
2022/02/28 10:22:44;;;;;;;28.63;14.35;;;4.40;94.70;;;;;;5053408;28;20041;-62
2022/02/28 10:25:25;;;;;;;30.05;14.40;;;4.40;94.90;;;;;;5053378;28;20093;-63
2022/02/28 10:28:13;;;;;;;27.40;14.70;;;4.50;94.90;;;;;;5037236;28;20026;-62
2022/02/28 10:30:40;;;;;;;28.95;15.68;;;4.40;94.80;;;;;;5055099;28;20123;-62
2022/02/28 10:33:09;;;;;;;35.28;17.17;;;4.40;94.80;;;;;;5039161;28;20392;-62
2022/02/28 10:36:00;;;;;;;35.45;18.27;;;4.50;94.90;;;;;;5041469;28;20886;-62
2022/02/28 10:38:28;;;;;;;32.63;17.73;;;4.50;94.90;;;;;;5036090;28;20384;-62
2022/02/28 10:40:55;;;;;;;43.42;20.80;;;4.50;94.90;;;;;;5046273;28;20072;-62
2022/02/28 10:43:22;;;;;;;36.30;19.10;;;4.50;94.70;;;;;;5048925;28;20036;-62
2022/02/28 10:45:48;;;;;;;37.65;19.17;;;4.50;94.80;;;;;;5048438;28;20064;-62
2022/02/28 10:48:13;;;;;;;39.60;19.42;;;4.60;94.80;;;;;;5053154;28;20029;-63
2022/02/28 10:50:41;;;;;;;33.15;17.35;;;4.60;94.50;;;;;;5034372;28;20029;-63
2022/02/28 10:53:14;;;;;;;31.88;18.77;;;4.60;94.30;;;;;;5032973;28;20041;-63
2022/02/28 10:55:40;;;;;;;34.35;18.25;;;4.60;94.30;;;;;;5043438;28;20029;-62
2022/02/28 10:58:11;;;;;;;28.52;16.50;;;4.60;94.40;;;;;;5050053;28;20491;-62
2022/02/28 11:00:54;;;;;;;36.85;17.08;;;4.60;94.50;;;;;;5042069;28;20029;-62
2022/02/28 11:03:20;;;;;;;33.83;18.27;;;4.70;94.50;;;;;;5049241;28;20404;-61
2022/02/28 11:05:57;;;;;;;31.58;16.55;;;4.80;94.50;;;;;;5043647;28;20047;-63
2022/02/28 11:08:24;;;;;;;32.05;17.00;;;4.90;94.60;;;;;;5041676;28;20504;-65
2022/02/28 11:10:52;;;;;;;34.30;19.05;;;4.90;94.50;;;;;;5023682;28;20029;-63
2022/02/28 11:13:17;;;;;;;37.45;19.77;;;5.00;94.50;;;;;;5035185;28;20040;-62
2022/02/28 11:15:43;;;;;;;34.40;18.10;;;5.10;94.30;;;;;;5051304;28;20021;-62
2022/02/28 11:18:12;;;;;;;29.92;16.27;;;5.20;94.40;;;;;;5042886;28;20124;-62
2022/02/28 11:20:39;;;;;;;29.83;17.63;;;5.20;94.20;;;;;;5046250;28;20132;-62
2022/02/28 11:23:04;;;;;;;28.83;16.65;;;5.20;94.20;;;;;;5045867;28;20404;-62
2022/02/28 11:25:30;;;;;;;31.30;17.58;;;5.30;94.10;;;;;;5064801;28;20020;-62
2022/02/28 11:27:58;;;;;;;32.92;16.88;;;5.30;94.10;;;;;;5049329;28;20033;-61
2022/02/28 11:30:26;;;;;;;28.52;16.38;;;5.30;93.80;;;;;;5044572;28;20025;-62
2022/02/28 11:32:54;;;;;;;32.83;17.70;;;5.40;93.90;;;;;;5045975;28;20032;-60
2022/02/28 11:35:37;;;;;;;30.58;15.52;;;5.40;94.10;;;;;;5041476;28;20037;-61
2022/02/28 11:38:27;;;;;;;31.30;16.63;;;5.60;94.00;;;;;;5038006;28;20033;-60
2022/02/28 11:41:01;;;;;;;28.70;16.65;;;5.60;93.60;;;;;;5024399;28;20044;-61
2022/02/28 11:43:28;;;;;;;28.83;15.70;;;5.60;93.30;;;;;;5042301;28;20037;-61
2022/02/28 11:45:58;;;;;;;23.52;13.93;;;5.70;93.40;;;;;;5034522;28;20284;-61
2022/02/28 11:48:24;;;;;;;26.35;14.20;;;5.80;93.50;;;;;;5036245;28;20096;-61
2022/02/28 11:51:00;;;;;;;24.30;13.60;;;5.90;93.60;;;;;;5048229;28;20112;-62
2022/02/28 11:53:44;;;;;;;19.83;10.68;;;6.10;93.70;;;;;;5040265;28;20046;-62
2022/02/28 11:56:16;;;;;;;18.42;9.88;;;6.20;93.30;;;;;;5042659;28;20025;-62
2022/02/28 11:59:02;;;;;;;18.00;10.35;;;6.30;93.30;;;;;;5039344;28;20029;-61
2022/02/28 12:01:46;;;;;;;14.45;9.02;;;6.40;93.00;;;;;;5037502;28;20033;-62
2022/02/28 12:04:15;;;;;;;16.85;9.10;;;6.50;92.80;;;;;;5043330;28;20033;-61
2022/02/28 12:06:50;;;;;;;14.02;7.47;;;6.60;92.60;;;;;;5035586;28;20544;-61
2022/02/28 12:09:36;;;;;;;13.38;7.55;;;6.70;92.50;;;;;;5041309;28;20055;-61
2022/02/28 12:12:31;;;;;;;10.52;6.47;;;6.70;92.30;;;;;;5050766;28;20531;-62
2022/02/28 12:14:57;;;;;;;12.55;6.22;;;6.80;91.90;;;;;;5048344;28;20047;-63
2022/02/28 12:17:32;;;;;;;14.27;6.70;;;6.90;91.70;;;;;;5042251;28;20037;-62
2022/02/28 12:20:19;;;;;;;12.38;5.38;;;7.00;91.40;;;;;;5041038;28;20047;-62
2022/02/28 12:22:51;;;;;;;10.38;5.50;;;7.00;90.00;;;;;;5037005;28;20040;-62
2022/02/28 12:25:33;;;;;;;9.38;5.68;;;7.00;90.40;;;;;;5046764;28;20144;-63
2022/02/28 12:28:17;;;;;;;9.18;4.65;;;7.10;90.00;;;;;;5049218;28;20040;-63
2022/02/28 12:30:46;;;;;;;8.27;4.38;;;7.10;89.00;;;;;;5040595;28;20079;-62
2022/02/28 12:33:14;;;;;;;10.48;4.88;;;7.20;89.30;;;;;;5049585;28;20038;-62
2022/02/28 12:35:57;;;;;;;9.40;4.45;;;7.20;88.90;;;;;;5049769;28;20488;-61
2022/02/28 12:38:25;;;;;;;8.90;4.60;;;7.20;86.60;;;;;;5046273;28;20035;-62